sensor_id;sensor_type;location;lat;lon;timestamp;pressure;altitude;pressure_sealevel;temperature
71463;BMP180;59266;52.608;13.260;2023-02-01T00:00:50;100622.00;;;3.80
71463;BMP180;59266;52.608;13.260;2023-02-01T00:03:16;100613.00;;;3.80
71463;BMP180;59266;52.608;13.260;2023-02-01T00:05:58;100615.00;;;3.70
71463;BMP180;59266;52.608;13.260;2023-02-01T00:08:25;100623.00;;;3.60
71463;BMP180;59266;52.608;13.260;2023-02-01T00:11:06;100614.00;;;3.60
71463;BMP180;59266;52.608;13.260;2023-02-01T00:13:34;100626.00;;;3.60
71463;BMP180;59266;52.608;13.260;2023-02-01T00:16:05;100624.00;;;3.60
71463;BMP180;59266;52.608;13.260;2023-02-01T00:18:32;100625.00;;;3.70
71463;BMP180;59266;52.608;13.260;2023-02-01T00:20:59;100609.00;;;3.70
71463;BMP180;59266;52.608;13.260;2023-02-01T00:23:26;100610.00;;;3.80
71463;BMP180;59266;52.608;13.260;2023-02-01T00:25:53;100606.00;;;3.70
71463;BMP180;59266;52.608;13.260;2023-02-01T00:28:19;100604.00;;;3.80
71463;BMP180;59266;52.608;13.260;2023-02-01T00:30:56;100615.00;;;3.80
71463;BMP180;59266;52.608;13.260;2023-02-01T00:33:23;100618.00;;;3.90
71463;BMP180;59266;52.608;13.260;2023-02-01T00:35:50;100607.00;;;3.90
71463;BMP180;59266;52.608;13.260;2023-02-01T00:38:16;100610.00;;;3.90
71463;BMP180;59266;52.608;13.260;2023-02-01T00:40:43;100628.00;;;3.80
71463;BMP180;59266;52.608;13.260;2023-02-01T00:43:17;100621.00;;;3.80
71463;BMP180;59266;52.608;13.260;2023-02-01T00:45:45;100622.00;;;3.80
71463;BMP180;59266;52.608;13.260;2023-02-01T00:48:15;100626.00;;;3.90
71463;BMP180;59266;52.608;13.260;2023-02-01T00:50:42;100629.00;;;3.90
71463;BMP180;59266;52.608;13.260;2023-02-01T00:53:11;100618.00;;;3.90
71463;BMP180;59266;52.608;13.260;2023-02-01T00:55:44;100638.00;;;3.80
71463;BMP180;59266;52.608;13.260;2023-02-01T00:58:11;100638.00;;;3.80
71463;BMP180;59266;52.608;13.260;2023-02-01T01:00:38;100622.00;;;3.70
71463;BMP180;59266;52.608;13.260;2023-02-01T01:03:05;100625.00;;;3.70
71463;BMP180;59266;52.608;13.260;2023-02-01T01:05:49;100619.00;;;3.70
71463;BMP180;59266;52.608;13.260;2023-02-01T01:08:16;100634.00;;;3.70
71463;BMP180;59266;52.608;13.260;2023-02-01T01:10:43;100628.00;;;3.60
71463;BMP180;59266;52.608;13.260;2023-02-01T01:13:09;100622.00;;;3.60
71463;BMP180;59266;52.608;13.260;2023-02-01T01:15:39;100622.00;;;3.60
71463;BMP180;59266;52.608;13.260;2023-02-01T01:18:13;100621.00;;;3.70
71463;BMP180;59266;52.608;13.260;2023-02-01T01:20:40;100610.00;;;3.70
71463;BMP180;59266;52.608;13.260;2023-02-01T01:23:08;100619.00;;;3.70
71463;BMP180;59266;52.608;13.260;2023-02-01T01:25:39;100608.00;;;3.70
71463;BMP180;59266;52.608;13.260;2023-02-01T01:28:06;100610.00;;;3.70
71463;BMP180;59266;52.608;13.260;2023-02-01T01:30:34;100603.00;;;3.70
71463;BMP180;59266;52.608;13.260;2023-02-01T01:33:01;100588.00;;;3.80
71463;BMP180;59266;52.608;13.260;2023-02-01T01:35:32;100593.00;;;3.70
71463;BMP180;59266;52.608;13.260;2023-02-01T01:38:02;100600.00;;;3.70
71463;BMP180;59266;52.608;13.260;2023-02-01T01:40:38;100592.00;;;3.70
71463;BMP180;59266;52.608;13.260;2023-02-01T01:43:13;100582.00;;;3.70
71463;BMP180;59266;52.608;13.260;2023-02-01T01:45:40;100592.00;;;3.70
71463;BMP180;59266;52.608;13.260;2023-02-01T01:48:12;100603.00;;;3.80
71463;BMP180;59266;52.608;13.260;2023-02-01T01:50:44;100596.00;;;3.80
71463;BMP180;59266;52.608;13.260;2023-02-01T01:53:19;100598.00;;;3.80
71463;BMP180;59266;52.608;13.260;2023-02-01T01:55:47;100594.00;;;3.90
71463;BMP180;59266;52.608;13.260;2023-02-01T01:58:18;100590.00;;;3.90
71463;BMP180;59266;52.608;13.260;2023-02-01T02:00:46;100598.00;;;3.90
71463;BMP180;59266;52.608;13.260;2023-02-01T02:03:17;100601.00;;;4.00
71463;BMP180;59266;52.608;13.260;2023-02-01T02:05:47;100598.00;;;4.10
71463;BMP180;59266;52.608;13.260;2023-02-01T02:08:15;100610.00;;;4.00
71463;BMP180;59266;52.608;13.260;2023-02-01T02:10:43;100617.00;;;4.00
71463;BMP180;59266;52.608;13.260;2023-02-01T02:13:40;100605.00;;;4.00
71463;BMP180;59266;52.608;13.260;2023-02-01T02:18:55;100613.00;;;4.10
71463;BMP180;59266;52.608;13.260;2023-02-01T02:21:40;100604.00;;;4.10
71463;BMP180;59266;52.608;13.260;2023-02-01T02:24:37;100602.00;;;4.10
71463;BMP180;59266;52.608;13.260;2023-02-01T02:27:18;100591.00;;;4.00
71463;BMP180;59266;52.608;13.260;2023-02-01T02:32:47;100602.00;;;4.00
71463;BMP180;59266;52.608;13.260;2023-02-01T02:35:30;100588.00;;;4.10
71463;BMP180;59266;52.608;13.260;2023-02-01T02:38:18;100576.00;;;4.20
71463;BMP180;59266;52.608;13.260;2023-02-01T02:40:54;100576.00;;;4.20
71463;BMP180;59266;52.608;13.260;2023-02-01T02:43:28;100587.00;;;4.10
71463;BMP180;59266;52.608;13.260;2023-02-01T02:46:23;100567.00;;;4.10
71463;BMP180;59266;52.608;13.260;2023-02-01T02:49:15;100576.00;;;4.10
71463;BMP180;59266;52.608;13.260;2023-02-01T02:52:21;100586.00;;;4.20
71463;BMP180;59266;52.608;13.260;2023-02-01T02:55:01;100586.00;;;4.20
71463;BMP180;59266;52.608;13.260;2023-02-01T02:57:33;100579.00;;;4.20
71463;BMP180;59266;52.608;13.260;2023-02-01T03:00:23;100577.00;;;4.10
71463;BMP180;59266;52.608;13.260;2023-02-01T03:03:10;100575.00;;;4.10
71463;BMP180;59266;52.608;13.260;2023-02-01T03:05:56;100573.00;;;4.10
71463;BMP180;59266;52.608;13.260;2023-02-01T03:08:25;100564.00;;;4.10
71463;BMP180;59266;52.608;13.260;2023-02-01T03:11:09;100564.00;;;4.10
71463;BMP180;59266;52.608;13.260;2023-02-01T03:13:50;100559.00;;;4.10
71463;BMP180;59266;52.608;13.260;2023-02-01T03:16:26;100558.00;;;4.00
71463;BMP180;59266;52.608;13.260;2023-02-01T03:22:02;100546.00;;;4.10
71463;BMP180;59266;52.608;13.260;2023-02-01T03:24:42;100539.00;;;4.10
71463;BMP180;59266;52.608;13.260;2023-02-01T03:27:20;100545.00;;;4.10
71463;BMP180;59266;52.608;13.260;2023-02-01T03:29:59;100543.00;;;4.10
71463;BMP180;59266;52.608;13.260;2023-02-01T03:32:28;100531.00;;;4.10
71463;BMP180;59266;52.608;13.260;2023-02-01T03:34:55;100520.00;;;4.10
71463;BMP180;59266;52.608;13.260;2023-02-01T03:37:27;100520.00;;;4.10
71463;BMP180;59266;52.608;13.260;2023-02-01T03:40:01;100529.00;;;4.10
71463;BMP180;59266;52.608;13.260;2023-02-01T03:42:37;100520.00;;;4.00
71463;BMP180;59266;52.608;13.260;2023-02-01T03:45:10;100513.00;;;4.10
71463;BMP180;59266;52.608;13.260;2023-02-01T03:47:42;100521.00;;;4.00
71463;BMP180;59266;52.608;13.260;2023-02-01T03:50:13;100518.00;;;4.00
71463;BMP180;59266;52.608;13.260;2023-02-01T03:52:48;100521.00;;;4.10
71463;BMP180;59266;52.608;13.260;2023-02-01T03:55:19;100524.00;;;4.10
71463;BMP180;59266;52.608;13.260;2023-02-01T03:57:53;100523.00;;;4.20
71463;BMP180;59266;52.608;13.260;2023-02-01T04:00:24;100516.00;;;4.20
71463;BMP180;59266;52.608;13.260;2023-02-01T04:02:52;100526.00;;;4.30
71463;BMP180;59266;52.608;13.260;2023-02-01T04:05:32;100530.00;;;4.30
71463;BMP180;59266;52.608;13.260;2023-02-01T04:08:08;100524.00;;;4.40
71463;BMP180;59266;52.608;13.260;2023-02-01T04:10:34;100524.00;;;4.50
71463;BMP180;59266;52.608;13.260;2023-02-01T04:13:01;100521.00;;;4.50
71463;BMP180;59266;52.608;13.260;2023-02-01T04:15:38;100526.00;;;4.60
71463;BMP180;59266;52.608;13.260;2023-02-01T04:18:05;100522.00;;;4.60
71463;BMP180;59266;52.608;13.260;2023-02-01T04:20:31;100532.00;;;4.60
71463;BMP180;59266;52.608;13.260;2023-02-01T04:22:58;100523.00;;;4.60
71463;BMP180;59266;52.608;13.260;2023-02-01T04:25:25;100523.00;;;4.70
71463;BMP180;59266;52.608;13.260;2023-02-01T04:27:51;100520.00;;;4.70
71463;BMP180;59266;52.608;13.260;2023-02-01T04:30:18;100526.00;;;4.80
71463;BMP180;59266;52.608;13.260;2023-02-01T04:32:45;100517.00;;;4.80
71463;BMP180;59266;52.608;13.260;2023-02-01T04:35:11;100512.00;;;4.80
71463;BMP180;59266;52.608;13.260;2023-02-01T04:37:38;100511.00;;;4.80
71463;BMP180;59266;52.608;13.260;2023-02-01T04:40:05;100506.00;;;4.80
71463;BMP180;59266;52.608;13.260;2023-02-01T04:42:32;100509.00;;;4.90
71463;BMP180;59266;52.608;13.260;2023-02-01T04:44:59;100509.00;;;4.80
71463;BMP180;59266;52.608;13.260;2023-02-01T04:47:28;100502.00;;;4.80
71463;BMP180;59266;52.608;13.260;2023-02-01T04:49:54;100495.00;;;4.90
71463;BMP180;59266;52.608;13.260;2023-02-01T04:52:21;100495.00;;;4.90
71463;BMP180;59266;52.608;13.260;2023-02-01T04:54:48;100488.00;;;4.90
71463;BMP180;59266;52.608;13.260;2023-02-01T04:57:14;100485.00;;;4.90
71463;BMP180;59266;52.608;13.260;2023-02-01T04:59:41;100490.00;;;5.00
71463;BMP180;59266;52.608;13.260;2023-02-01T05:02:08;100481.00;;;5.00
71463;BMP180;59266;52.608;13.260;2023-02-01T05:04:34;100475.00;;;5.00
71463;BMP180;59266;52.608;13.260;2023-02-01T05:07:01;100460.00;;;5.00
71463;BMP180;59266;52.608;13.260;2023-02-01T05:09:27;100464.00;;;5.00
71463;BMP180;59266;52.608;13.260;2023-02-01T05:11:54;100468.00;;;5.10
71463;BMP180;59266;52.608;13.260;2023-02-01T05:14:39;100469.00;;;5.10
71463;BMP180;59266;52.608;13.260;2023-02-01T05:17:05;100467.00;;;5.10
71463;BMP180;59266;52.608;13.260;2023-02-01T05:19:32;100472.00;;;5.10
71463;BMP180;59266;52.608;13.260;2023-02-01T05:22:03;100472.00;;;5.10
71463;BMP180;59266;52.608;13.260;2023-02-01T05:24:30;100467.00;;;5.20
71463;BMP180;59266;52.608;13.260;2023-02-01T05:26:57;100461.00;;;5.10
71463;BMP180;59266;52.608;13.260;2023-02-01T05:29:23;100455.00;;;5.20
71463;BMP180;59266;52.608;13.260;2023-02-01T05:31:50;100456.00;;;5.20
71463;BMP180;59266;52.608;13.260;2023-02-01T05:34:17;100456.00;;;5.30
71463;BMP180;59266;52.608;13.260;2023-02-01T05:36:43;100456.00;;;5.30
71463;BMP180;59266;52.608;13.260;2023-02-01T05:39:10;100446.00;;;5.30
71463;BMP180;59266;52.608;13.260;2023-02-01T05:41:36;100449.00;;;5.30
71463;BMP180;59266;52.608;13.260;2023-02-01T05:44:03;100459.00;;;5.30
71463;BMP180;59266;52.608;13.260;2023-02-01T05:46:30;100444.00;;;5.30
71463;BMP180;59266;52.608;13.260;2023-02-01T05:48:56;100443.00;;;5.30
71463;BMP180;59266;52.608;13.260;2023-02-01T05:51:23;100443.00;;;5.30
71463;BMP180;59266;52.608;13.260;2023-02-01T05:53:51;100439.00;;;5.30
71463;BMP180;59266;52.608;13.260;2023-02-01T05:56:17;100430.00;;;5.30
71463;BMP180;59266;52.608;13.260;2023-02-01T05:58:44;100434.00;;;5.30
71463;BMP180;59266;52.608;13.260;2023-02-01T06:01:10;100428.00;;;5.30
71463;BMP180;59266;52.608;13.260;2023-02-01T06:03:37;100428.00;;;5.30
71463;BMP180;59266;52.608;13.260;2023-02-01T06:06:04;100438.00;;;5.30
71463;BMP180;59266;52.608;13.260;2023-02-01T06:08:30;100437.00;;;5.30
71463;BMP180;59266;52.608;13.260;2023-02-01T06:11:01;100433.00;;;5.30
71463;BMP180;59266;52.608;13.260;2023-02-01T06:13:30;100437.00;;;5.20
71463;BMP180;59266;52.608;13.260;2023-02-01T06:15:59;100438.00;;;5.20
71463;BMP180;59266;52.608;13.260;2023-02-01T06:18:26;100445.00;;;5.20
71463;BMP180;59266;52.608;13.260;2023-02-01T06:20:57;100434.00;;;5.10
71463;BMP180;59266;52.608;13.260;2023-02-01T06:23:27;100440.00;;;5.10
71463;BMP180;59266;52.608;13.260;2023-02-01T06:25:59;100424.00;;;5.00
71463;BMP180;59266;52.608;13.260;2023-02-01T06:28:27;100428.00;;;4.90
71463;BMP180;59266;52.608;13.260;2023-02-01T06:30:54;100417.00;;;4.90
71463;BMP180;59266;52.608;13.260;2023-02-01T06:33:20;100423.00;;;4.80
71463;BMP180;59266;52.608;13.260;2023-02-01T06:35:47;100424.00;;;4.80
71463;BMP180;59266;52.608;13.260;2023-02-01T06:38:14;100418.00;;;4.80
71463;BMP180;59266;52.608;13.260;2023-02-01T06:40:40;100413.00;;;4.90
71463;BMP180;59266;52.608;13.260;2023-02-01T06:43:10;100410.00;;;4.90
71463;BMP180;59266;52.608;13.260;2023-02-01T06:45:36;100403.00;;;4.80
71463;BMP180;59266;52.608;13.260;2023-02-01T06:48:03;100398.00;;;4.80
71463;BMP180;59266;52.608;13.260;2023-02-01T06:50:29;100392.00;;;4.90
71463;BMP180;59266;52.608;13.260;2023-02-01T06:52:55;100398.00;;;4.90
71463;BMP180;59266;52.608;13.260;2023-02-01T06:55:22;100391.00;;;4.90
71463;BMP180;59266;52.608;13.260;2023-02-01T06:57:53;100400.00;;;4.90
71463;BMP180;59266;52.608;13.260;2023-02-01T07:00:20;100384.00;;;5.00
71463;BMP180;59266;52.608;13.260;2023-02-01T07:02:48;100381.00;;;4.90
71463;BMP180;59266;52.608;13.260;2023-02-01T07:05:15;100393.00;;;5.00
71463;BMP180;59266;52.608;13.260;2023-02-01T07:07:42;100392.00;;;5.00
71463;BMP180;59266;52.608;13.260;2023-02-01T07:10:10;100396.00;;;4.90
71463;BMP180;59266;52.608;13.260;2023-02-01T07:12:36;100389.00;;;4.90
71463;BMP180;59266;52.608;13.260;2023-02-01T07:15:35;100395.00;;;4.80
71463;BMP180;59266;52.608;13.260;2023-02-01T07:18:02;100386.00;;;4.70
71463;BMP180;59266;52.608;13.260;2023-02-01T07:21:40;100390.00;;;4.70
71463;BMP180;59266;52.608;13.260;2023-02-01T07:23:44;100380.00;;;4.70
71463;BMP180;59266;52.608;13.260;2023-02-01T07:26:12;100374.00;;;4.80
71463;BMP180;59266;52.608;13.260;2023-02-01T07:28:39;100366.00;;;4.70
71463;BMP180;59266;52.608;13.260;2023-02-01T07:31:10;100373.00;;;4.70
71463;BMP180;59266;52.608;13.260;2023-02-01T07:33:37;100369.00;;;4.80
71463;BMP180;59266;52.608;13.260;2023-02-01T07:36:05;100355.00;;;4.70
71463;BMP180;59266;52.608;13.260;2023-02-01T07:38:33;100369.00;;;4.80
71463;BMP180;59266;52.608;13.260;2023-02-01T07:41:00;100369.00;;;4.70
71463;BMP180;59266;52.608;13.260;2023-02-01T07:43:28;100358.00;;;4.70
71463;BMP180;59266;52.608;13.260;2023-02-01T07:45:55;100366.00;;;4.60
71463;BMP180;59266;52.608;13.260;2023-02-01T07:48:23;100358.00;;;4.40
71463;BMP180;59266;52.608;13.260;2023-02-01T07:51:09;100374.00;;;4.40
71463;BMP180;59266;52.608;13.260;2023-02-01T07:53:36;100373.00;;;4.30
71463;BMP180;59266;52.608;13.260;2023-02-01T07:56:30;100368.00;;;4.30
71463;BMP180;59266;52.608;13.260;2023-02-01T07:58:56;100368.00;;;4.30
71463;BMP180;59266;52.608;13.260;2023-02-01T08:01:24;100373.00;;;4.20
71463;BMP180;59266;52.608;13.260;2023-02-01T08:03:55;100374.00;;;4.10
71463;BMP180;59266;52.608;13.260;2023-02-01T08:06:26;100375.00;;;4.10
71463;BMP180;59266;52.608;13.260;2023-02-01T08:08:54;100374.00;;;4.10
71463;BMP180;59266;52.608;13.260;2023-02-01T08:11:21;100379.00;;;4.00
71463;BMP180;59266;52.608;13.260;2023-02-01T08:13:49;100381.00;;;3.90
71463;BMP180;59266;52.608;13.260;2023-02-01T08:16:17;100383.00;;;3.80
71463;BMP180;59266;52.608;13.260;2023-02-01T08:18:45;100386.00;;;3.80
71463;BMP180;59266;52.608;13.260;2023-02-01T08:21:15;100382.00;;;3.80
71463;BMP180;59266;52.608;13.260;2023-02-01T08:23:42;100379.00;;;3.80
71463;BMP180;59266;52.608;13.260;2023-02-01T08:28:37;100374.00;;;3.80
71463;BMP180;59266;52.608;13.260;2023-02-01T08:31:09;100394.00;;;3.80
71463;BMP180;59266;52.608;13.260;2023-02-01T08:33:36;100396.00;;;3.80
71463;BMP180;59266;52.608;13.260;2023-02-01T08:36:04;100398.00;;;3.90
71463;BMP180;59266;52.608;13.260;2023-02-01T08:38:31;100396.00;;;3.80
71463;BMP180;59266;52.608;13.260;2023-02-01T08:41:04;100405.00;;;3.80
71463;BMP180;59266;52.608;13.260;2023-02-01T08:43:30;100404.00;;;3.80
71463;BMP180;59266;52.608;13.260;2023-02-01T08:45:57;100402.00;;;3.70
71463;BMP180;59266;52.608;13.260;2023-02-01T08:48:23;100397.00;;;3.70
71463;BMP180;59266;52.608;13.260;2023-02-01T08:50:50;100396.00;;;3.70
71463;BMP180;59266;52.608;13.260;2023-02-01T08:53:16;100382.00;;;3.70
71463;BMP180;59266;52.608;13.260;2023-02-01T08:55:45;100391.00;;;3.70
71463;BMP180;59266;52.608;13.260;2023-02-01T08:58:12;100395.00;;;3.80
71463;BMP180;59266;52.608;13.260;2023-02-01T09:00:40;100393.00;;;3.80
71463;BMP180;59266;52.608;13.260;2023-02-01T09:03:09;100406.00;;;3.90
71463;BMP180;59266;52.608;13.260;2023-02-01T09:05:37;100387.00;;;3.90
71463;BMP180;59266;52.608;13.260;2023-02-01T09:08:14;100403.00;;;4.00
71463;BMP180;59266;52.608;13.260;2023-02-01T09:10:41;100403.00;;;4.10
71463;BMP180;59266;52.608;13.260;2023-02-01T09:13:08;100408.00;;;4.20
71463;BMP180;59266;52.608;13.260;2023-02-01T09:15:36;100395.00;;;4.30
71463;BMP180;59266;52.608;13.260;2023-02-01T09:18:12;100413.00;;;4.30
71463;BMP180;59266;52.608;13.260;2023-02-01T09:20:42;100410.00;;;4.30
71463;BMP180;59266;52.608;13.260;2023-02-01T09:23:08;100411.00;;;4.30
71463;BMP180;59266;52.608;13.260;2023-02-01T09:25:37;100416.00;;;4.30
71463;BMP180;59266;52.608;13.260;2023-02-01T09:28:05;100428.00;;;4.30
71463;BMP180;59266;52.608;13.260;2023-02-01T09:30:33;100424.00;;;4.40
71463;BMP180;59266;52.608;13.260;2023-02-01T09:32:59;100429.00;;;4.40
71463;BMP180;59266;52.608;13.260;2023-02-01T09:35:26;100425.00;;;4.40
71463;BMP180;59266;52.608;13.260;2023-02-01T09:37:53;100428.00;;;4.40
71463;BMP180;59266;52.608;13.260;2023-02-01T09:40:20;100444.00;;;4.40
71463;BMP180;59266;52.608;13.260;2023-02-01T09:43:17;100437.00;;;4.40
71463;BMP180;59266;52.608;13.260;2023-02-01T09:45:51;100442.00;;;4.50
71463;BMP180;59266;52.608;13.260;2023-02-01T09:48:26;100426.00;;;4.50
71463;BMP180;59266;52.608;13.260;2023-02-01T09:50:57;100431.00;;;4.50
71463;BMP180;59266;52.608;13.260;2023-02-01T09:53:40;100441.00;;;4.50
71463;BMP180;59266;52.608;13.260;2023-02-01T09:56:14;100448.00;;;4.60
71463;BMP180;59266;52.608;13.260;2023-02-01T09:59:04;100440.00;;;4.50
71463;BMP180;59266;52.608;13.260;2023-02-01T10:01:36;100448.00;;;4.30
71463;BMP180;59266;52.608;13.260;2023-02-01T10:04:07;100444.00;;;4.20
71463;BMP180;59266;52.608;13.260;2023-02-01T10:07:02;100451.00;;;4.10
71463;BMP180;59266;52.608;13.260;2023-02-01T10:21:42;100464.00;;;4.40
71463;BMP180;59266;52.608;13.260;2023-02-01T10:24:20;100460.00;;;4.40
71463;BMP180;59266;52.608;13.260;2023-02-01T10:26:56;100456.00;;;4.40
71463;BMP180;59266;52.608;13.260;2023-02-01T10:29:32;100446.00;;;4.70
71463;BMP180;59266;52.608;13.260;2023-02-01T10:32:02;100452.00;;;4.80
71463;BMP180;59266;52.608;13.260;2023-02-01T10:34:32;100456.00;;;4.90
71463;BMP180;59266;52.608;13.260;2023-02-01T10:37:02;100459.00;;;4.90
71463;BMP180;59266;52.608;13.260;2023-02-01T10:39:34;100468.00;;;4.80
71463;BMP180;59266;52.608;13.260;2023-02-01T10:42:01;100472.00;;;4.60
71463;BMP180;59266;52.608;13.260;2023-02-01T10:44:30;100457.00;;;4.50
71463;BMP180;59266;52.608;13.260;2023-02-01T10:46:58;100465.00;;;4.50
71463;BMP180;59266;52.608;13.260;2023-02-01T10:50:03;100466.00;;;4.40
71463;BMP180;59266;52.608;13.260;2023-02-01T10:53:01;100457.00;;;4.40
71463;BMP180;59266;52.608;13.260;2023-02-01T10:55:41;100458.00;;;4.50
71463;BMP180;59266;52.608;13.260;2023-02-01T10:58:30;100450.00;;;4.50
71463;BMP180;59266;52.608;13.260;2023-02-01T11:01:07;100443.00;;;4.70
71463;BMP180;59266;52.608;13.260;2023-02-01T11:03:40;100432.00;;;4.70
71463;BMP180;59266;52.608;13.260;2023-02-01T11:06:18;100433.00;;;4.80
71463;BMP180;59266;52.608;13.260;2023-02-01T11:08:51;100433.00;;;4.80
71463;BMP180;59266;52.608;13.260;2023-02-01T11:11:19;100437.00;;;4.80
71463;BMP180;59266;52.608;13.260;2023-02-01T11:14:04;100435.00;;;5.00
71463;BMP180;59266;52.608;13.260;2023-02-01T11:16:38;100436.00;;;5.30
71463;BMP180;59266;52.608;13.260;2023-02-01T11:19:05;100420.00;;;5.50
71463;BMP180;59266;52.608;13.260;2023-02-01T11:21:34;100417.00;;;6.20
71463;BMP180;59266;52.608;13.260;2023-02-01T11:24:03;100419.00;;;5.90
71463;BMP180;59266;52.608;13.260;2023-02-01T11:26:31;100413.00;;;5.90
71463;BMP180;59266;52.608;13.260;2023-02-01T11:29:11;100404.00;;;6.30
71463;BMP180;59266;52.608;13.260;2023-02-01T11:31:40;100408.00;;;6.10
71463;BMP180;59266;52.608;13.260;2023-02-01T11:34:16;100405.00;;;6.00
71463;BMP180;59266;52.608;13.260;2023-02-01T11:36:46;100400.00;;;5.80
71463;BMP180;59266;52.608;13.260;2023-02-01T11:42:03;100393.00;;;5.70
71463;BMP180;59266;52.608;13.260;2023-02-01T11:47:22;100379.00;;;5.80
71463;BMP180;59266;52.608;13.260;2023-02-01T11:49:51;100371.00;;;6.10
71463;BMP180;59266;52.608;13.260;2023-02-01T12:06:59;100349.00;;;7.50
71463;BMP180;59266;52.608;13.260;2023-02-01T12:09:52;100355.00;;;7.00
71463;BMP180;59266;52.608;13.260;2023-02-01T12:12:27;100353.00;;;6.90
71463;BMP180;59266;52.608;13.260;2023-02-01T12:15:21;100348.00;;;6.80
71463;BMP180;59266;52.608;13.260;2023-02-01T12:23:06;100346.00;;;6.60
71463;BMP180;59266;52.608;13.260;2023-02-01T12:31:49;100335.00;;;6.40
71463;BMP180;59266;52.608;13.260;2023-02-01T12:34:24;100335.00;;;6.30
71463;BMP180;59266;52.608;13.260;2023-02-01T12:39:58;100319.00;;;6.30
71463;BMP180;59266;52.608;13.260;2023-02-01T12:42:31;100314.00;;;6.30
71463;BMP180;59266;52.608;13.260;2023-02-01T12:45:12;100294.00;;;6.20
71463;BMP180;59266;52.608;13.260;2023-02-01T12:47:47;100288.00;;;6.30
71463;BMP180;59266;52.608;13.260;2023-02-01T12:52:51;100278.00;;;6.40
71463;BMP180;59266;52.608;13.260;2023-02-01T12:55:42;100272.00;;;6.30
71463;BMP180;59266;52.608;13.260;2023-02-01T12:58:20;100288.00;;;6.40
71463;BMP180;59266;52.608;13.260;2023-02-01T13:01:05;100305.00;;;6.40
71463;BMP180;59266;52.608;13.260;2023-02-01T13:03:57;100363.00;;;6.40
71463;BMP180;59266;52.608;13.260;2023-02-01T13:06:31;100365.00;;;5.60
71463;BMP180;59266;52.608;13.260;2023-02-01T13:11:40;100341.00;;;5.30
71463;BMP180;59266;52.608;13.260;2023-02-01T13:14:28;100342.00;;;5.20
71463;BMP180;59266;52.608;13.260;2023-02-01T13:17:22;100333.00;;;5.30
71463;BMP180;59266;52.608;13.260;2023-02-01T13:20:21;100340.00;;;5.40
71463;BMP180;59266;52.608;13.260;2023-02-01T13:23:29;100325.00;;;5.60
71463;BMP180;59266;52.608;13.260;2023-02-01T13:25:56;100326.00;;;5.80
71463;BMP180;59266;52.608;13.260;2023-02-01T13:28:25;100320.00;;;6.00
71463;BMP180;59266;52.608;13.260;2023-02-01T13:36:31;100301.00;;;6.40
71463;BMP180;59266;52.608;13.260;2023-02-01T13:42:00;100288.00;;;6.60
71463;BMP180;59266;52.608;13.260;2023-02-01T13:44:34;100280.00;;;6.50
71463;BMP180;59266;52.608;13.260;2023-02-01T13:49:47;100296.00;;;6.60
71463;BMP180;59266;52.608;13.260;2023-02-01T13:52:39;100273.00;;;6.60
71463;BMP180;59266;52.608;13.260;2023-02-01T13:55:25;100277.00;;;6.60
71463;BMP180;59266;52.608;13.260;2023-02-01T13:58:03;100265.00;;;6.60
71463;BMP180;59266;52.608;13.260;2023-02-01T14:00:34;100266.00;;;6.60
71463;BMP180;59266;52.608;13.260;2023-02-01T14:13:28;100271.00;;;5.70
71463;BMP180;59266;52.608;13.260;2023-02-01T14:24:00;100255.00;;;5.50
71463;BMP180;59266;52.608;13.260;2023-02-01T14:26:42;100232.00;;;5.60
71463;BMP180;59266;52.608;13.260;2023-02-01T14:31:54;100227.00;;;5.50
71463;BMP180;59266;52.608;13.260;2023-02-01T14:34:31;100216.00;;;5.50
71463;BMP180;59266;52.608;13.260;2023-02-01T14:37:04;100220.00;;;5.60
71463;BMP180;59266;52.608;13.260;2023-02-01T14:44:40;100200.00;;;5.70
71463;BMP180;59266;52.608;13.260;2023-02-01T14:52:36;100192.00;;;5.70
71463;BMP180;59266;52.608;13.260;2023-02-01T14:55:11;100192.00;;;5.70
71463;BMP180;59266;52.608;13.260;2023-02-01T14:57:41;100191.00;;;5.70
71463;BMP180;59266;52.608;13.260;2023-02-01T15:00:18;100199.00;;;5.60
71463;BMP180;59266;52.608;13.260;2023-02-01T15:02:47;100197.00;;;5.70
71463;BMP180;59266;52.608;13.260;2023-02-01T15:05:26;100198.00;;;5.60
71463;BMP180;59266;52.608;13.260;2023-02-01T15:07:53;100194.00;;;5.50
71463;BMP180;59266;52.608;13.260;2023-02-01T15:10:20;100194.00;;;5.40
71463;BMP180;59266;52.608;13.260;2023-02-01T15:12:48;100193.00;;;5.30
71463;BMP180;59266;52.608;13.260;2023-02-01T15:15:21;100207.00;;;5.00
71463;BMP180;59266;52.608;13.260;2023-02-01T15:17:57;100206.00;;;4.80
71463;BMP180;59266;52.608;13.260;2023-02-01T15:20:31;100200.00;;;4.80
71463;BMP180;59266;52.608;13.260;2023-02-01T15:23:04;100213.00;;;4.80
71463;BMP180;59266;52.608;13.260;2023-02-01T15:25:36;100212.00;;;4.70
71463;BMP180;59266;52.608;13.260;2023-02-01T15:28:05;100212.00;;;4.70
71463;BMP180;59266;52.608;13.260;2023-02-01T15:30:35;100220.00;;;4.70
71463;BMP180;59266;52.608;13.260;2023-02-01T15:41:06;100224.00;;;4.20
71463;BMP180;59266;52.608;13.260;2023-02-01T15:43:37;100235.00;;;4.10
71463;BMP180;59266;52.608;13.260;2023-02-01T15:46:11;100244.00;;;4.00
71463;BMP180;59266;52.608;13.260;2023-02-01T15:48:42;100255.00;;;3.60
71463;BMP180;59266;52.608;13.260;2023-02-01T15:51:13;100254.00;;;3.30
71463;BMP180;59266;52.608;13.260;2023-02-01T15:53:45;100255.00;;;3.00
71463;BMP180;59266;52.608;13.260;2023-02-01T15:56:14;100245.00;;;3.00
71463;BMP180;59266;52.608;13.260;2023-02-01T15:58:44;100243.00;;;2.90
71463;BMP180;59266;52.608;13.260;2023-02-01T16:01:13;100237.00;;;2.80
71463;BMP180;59266;52.608;13.260;2023-02-01T16:03:43;100259.00;;;2.80
71463;BMP180;59266;52.608;13.260;2023-02-01T16:08:36;100255.00;;;2.70
71463;BMP180;59266;52.608;13.260;2023-02-01T16:13:36;100240.00;;;2.70
71463;BMP180;59266;52.608;13.260;2023-02-01T16:16:02;100240.00;;;2.60
71463;BMP180;59266;52.608;13.260;2023-02-01T16:18:34;100238.00;;;2.70
71463;BMP180;59266;52.608;13.260;2023-02-01T16:21:00;100245.00;;;2.70
71463;BMP180;59266;52.608;13.260;2023-02-01T16:23:28;100255.00;;;2.70